sensor_id;sensor_type;location;lat;lon;timestamp;P1;durP1;ratioP1;P2;durP2;ratioP2
21505;SDS011;10914;48.886;9.394;2022-07-11T00:00:52;23.25;;;22.05;;
21505;SDS011;10914;48.886;9.394;2022-07-11T00:03:17;22.77;;;21.48;;
21505;SDS011;10914;48.886;9.394;2022-07-11T00:05:42;22.48;;;21.27;;
21505;SDS011;10914;48.886;9.394;2022-07-11T00:08:08;22.83;;;21.52;;
21505;SDS011;10914;48.886;9.394;2022-07-11T00:10:33;22.38;;;21.17;;
21505;SDS011;10914;48.886;9.394;2022-07-11T00:12:58;22.90;;;21.63;;
21505;SDS011;10914;48.886;9.394;2022-07-11T00:15:24;23.30;;;22.10;;
21505;SDS011;10914;48.886;9.394;2022-07-11T00:17:49;24.52;;;23.20;;
21505;SDS011;10914;48.886;9.394;2022-07-11T00:20:14;25.17;;;23.83;;
21505;SDS011;10914;48.886;9.394;2022-07-11T00:22:39;24.80;;;23.50;;
21505;SDS011;10914;48.886;9.394;2022-07-11T00:25:05;22.77;;;21.57;;
21505;SDS011;10914;48.886;9.394;2022-07-11T00:27:30;25.98;;;24.67;;
21505;SDS011;10914;48.886;9.394;2022-07-11T00:29:55;23.00;;;21.80;;
21505;SDS011;10914;48.886;9.394;2022-07-11T00:32:20;26.42;;;24.98;;
21505;SDS011;10914;48.886;9.394;2022-07-11T00:34:46;24.13;;;22.83;;
21505;SDS011;10914;48.886;9.394;2022-07-11T00:37:11;23.77;;;22.50;;
21505;SDS011;10914;48.886;9.394;2022-07-11T00:39:36;22.85;;;21.65;;
21505;SDS011;10914;48.886;9.394;2022-07-11T00:42:01;23.30;;;21.97;;
21505;SDS011;10914;48.886;9.394;2022-07-11T00:44:27;23.67;;;22.42;;
21505;SDS011;10914;48.886;9.394;2022-07-11T00:46:52;23.00;;;21.90;;
21505;SDS011;10914;48.886;9.394;2022-07-11T00:49:18;22.38;;;21.27;;
21505;SDS011;10914;48.886;9.394;2022-07-11T00:51:44;22.65;;;21.45;;
21505;SDS011;10914;48.886;9.394;2022-07-11T00:54:09;22.55;;;21.30;;
21505;SDS011;10914;48.886;9.394;2022-07-11T00:56:35;23.50;;;22.30;;
21505;SDS011;10914;48.886;9.394;2022-07-11T00:59:01;23.40;;;22.00;;
21505;SDS011;10914;48.886;9.394;2022-07-11T01:01:26;23.30;;;22.10;;
21505;SDS011;10914;48.886;9.394;2022-07-11T01:03:51;24.53;;;23.23;;
21505;SDS011;10914;48.886;9.394;2022-07-11T01:06:17;26.70;;;25.40;;
21505;SDS011;10914;48.886;9.394;2022-07-11T01:08:42;27.08;;;25.75;;
21505;SDS011;10914;48.886;9.394;2022-07-11T01:11:09;24.38;;;23.08;;
21505;SDS011;10914;48.886;9.394;2022-07-11T01:13:37;22.63;;;21.42;;
21505;SDS011;10914;48.886;9.394;2022-07-11T01:16:21;23.25;;;21.90;;
21505;SDS011;10914;48.886;9.394;2022-07-11T01:18:50;22.92;;;21.63;;
21505;SDS011;10914;48.886;9.394;2022-07-11T01:21:21;23.63;;;22.35;;
21505;SDS011;10914;48.886;9.394;2022-07-11T01:23:47;24.67;;;23.27;;
21505;SDS011;10914;48.886;9.394;2022-07-11T01:26:13;23.73;;;22.52;;
21505;SDS011;10914;48.886;9.394;2022-07-11T01:28:38;24.92;;;23.45;;
21505;SDS011;10914;48.886;9.394;2022-07-11T01:31:04;25.52;;;24.23;;
21505;SDS011;10914;48.886;9.394;2022-07-11T01:33:31;25.08;;;23.75;;
21505;SDS011;10914;48.886;9.394;2022-07-11T01:35:56;24.00;;;22.80;;
21505;SDS011;10914;48.886;9.394;2022-07-11T01:38:21;24.88;;;23.58;;
21505;SDS011;10914;48.886;9.394;2022-07-11T01:40:47;24.00;;;22.80;;
21505;SDS011;10914;48.886;9.394;2022-07-11T01:43:12;24.67;;;23.27;;
21505;SDS011;10914;48.886;9.394;2022-07-11T01:45:37;26.20;;;24.90;;
21505;SDS011;10914;48.886;9.394;2022-07-11T01:48:02;26.75;;;25.25;;
21505;SDS011;10914;48.886;9.394;2022-07-11T01:50:27;23.95;;;22.65;;
21505;SDS011;10914;48.886;9.394;2022-07-11T01:52:53;24.00;;;22.83;;
21505;SDS011;10914;48.886;9.394;2022-07-11T01:55:18;27.37;;;25.97;;
21505;SDS011;10914;48.886;9.394;2022-07-11T01:57:43;26.75;;;25.35;;
21505;SDS011;10914;48.886;9.394;2022-07-11T02:00:08;26.17;;;24.88;;
21505;SDS011;10914;48.886;9.394;2022-07-11T02:02:36;27.50;;;26.08;;
21505;SDS011;10914;48.886;9.394;2022-07-11T02:05:01;24.63;;;23.30;;
21505;SDS011;10914;48.886;9.394;2022-07-11T02:07:26;24.00;;;22.77;;
21505;SDS011;10914;48.886;9.394;2022-07-11T02:10:10;24.08;;;22.77;;
21505;SDS011;10914;48.886;9.394;2022-07-11T02:12:35;23.83;;;22.52;;
21505;SDS011;10914;48.886;9.394;2022-07-11T02:15:01;24.80;;;23.40;;
21505;SDS011;10914;48.886;9.394;2022-07-11T02:17:26;28.23;;;26.73;;
21505;SDS011;10914;48.886;9.394;2022-07-11T02:19:51;27.08;;;25.67;;
21505;SDS011;10914;48.886;9.394;2022-07-11T02:22:18;26.80;;;25.40;;
21505;SDS011;10914;48.886;9.394;2022-07-11T02:24:43;26.00;;;24.60;;
21505;SDS011;10914;48.886;9.394;2022-07-11T02:27:09;32.07;;;30.43;;
21505;SDS011;10914;48.886;9.394;2022-07-11T02:29:34;31.60;;;30.02;;
21505;SDS011;10914;48.886;9.394;2022-07-11T02:31:59;24.40;;;23.10;;
21505;SDS011;10914;48.886;9.394;2022-07-11T02:34:25;27.33;;;25.88;;
21505;SDS011;10914;48.886;9.394;2022-07-11T02:36:50;29.70;;;28.10;;
21505;SDS011;10914;48.886;9.394;2022-07-11T02:39:15;33.85;;;32.15;;
21505;SDS011;10914;48.886;9.394;2022-07-11T02:41:41;24.40;;;23.10;;
21505;SDS011;10914;48.886;9.394;2022-07-11T02:46:45;31.60;;;29.98;;
21505;SDS011;10914;48.886;9.394;2022-07-11T02:49:10;30.63;;;28.95;;
21505;SDS011;10914;48.886;9.394;2022-07-11T02:51:38;30.85;;;29.13;;
21505;SDS011;10914;48.886;9.394;2022-07-11T02:54:03;27.55;;;26.05;;
21505;SDS011;10914;48.886;9.394;2022-07-11T02:56:29;24.38;;;22.98;;
21505;SDS011;10914;48.886;9.394;2022-07-11T02:58:54;30.00;;;28.50;;
21505;SDS011;10914;48.886;9.394;2022-07-11T03:01:20;25.60;;;24.20;;
21505;SDS011;10914;48.886;9.394;2022-07-11T03:03:48;29.48;;;27.90;;
21505;SDS011;10914;48.886;9.394;2022-07-11T03:06:13;28.35;;;26.95;;
21505;SDS011;10914;48.886;9.394;2022-07-11T03:08:39;33.97;;;32.30;;
21505;SDS011;10914;48.886;9.394;2022-07-11T03:11:04;24.20;;;22.70;;
21505;SDS011;10914;48.886;9.394;2022-07-11T03:13:41;33.65;;;32.00;;
21505;SDS011;10914;48.886;9.394;2022-07-11T03:16:07;29.17;;;27.45;;
21505;SDS011;10914;48.886;9.394;2022-07-11T03:18:35;26.73;;;25.33;;
21505;SDS011;10914;48.886;9.394;2022-07-11T03:21:03;25.63;;;24.08;;
21505;SDS011;10914;48.886;9.394;2022-07-11T03:23:29;26.75;;;25.45;;
21505;SDS011;10914;48.886;9.394;2022-07-11T03:25:54;25.80;;;24.30;;
21505;SDS011;10914;48.886;9.394;2022-07-11T03:28:20;24.70;;;23.38;;
21505;SDS011;10914;48.886;9.394;2022-07-11T03:30:48;25.80;;;24.35;;
21505;SDS011;10914;48.886;9.394;2022-07-11T03:33:13;23.52;;;22.42;;
21505;SDS011;10914;48.886;9.394;2022-07-11T03:35:42;23.85;;;22.65;;
21505;SDS011;10914;48.886;9.394;2022-07-11T03:38:08;33.97;;;32.35;;
21505;SDS011;10914;48.886;9.394;2022-07-11T03:40:33;31.67;;;30.15;;
21505;SDS011;10914;48.886;9.394;2022-07-11T03:42:59;23.63;;;22.33;;
21505;SDS011;10914;48.886;9.394;2022-07-11T03:45:24;23.52;;;22.33;;
21505;SDS011;10914;48.886;9.394;2022-07-11T03:47:49;34.25;;;32.40;;
21505;SDS011;10914;48.886;9.394;2022-07-11T03:50:15;24.95;;;23.75;;
21505;SDS011;10914;48.886;9.394;2022-07-11T03:52:40;26.90;;;25.60;;
21505;SDS011;10914;48.886;9.394;2022-07-11T03:55:05;28.02;;;26.52;;
21505;SDS011;10914;48.886;9.394;2022-07-11T03:57:32;25.42;;;24.15;;
21505;SDS011;10914;48.886;9.394;2022-07-11T03:59:58;25.73;;;24.42;;
21505;SDS011;10914;48.886;9.394;2022-07-11T04:02:24;27.52;;;26.13;;
21505;SDS011;10914;48.886;9.394;2022-07-11T04:04:49;26.43;;;24.97;;
21505;SDS011;10914;48.886;9.394;2022-07-11T04:07:14;41.70;;;39.60;;
21505;SDS011;10914;48.886;9.394;2022-07-11T04:09:39;47.70;;;45.40;;
21505;SDS011;10914;48.886;9.394;2022-07-11T04:12:04;25.07;;;23.57;;
21505;SDS011;10914;48.886;9.394;2022-07-11T04:14:30;34.70;;;32.97;;
21505;SDS011;10914;48.886;9.394;2022-07-11T04:16:55;25.38;;;23.98;;
21505;SDS011;10914;48.886;9.394;2022-07-11T04:19:20;24.93;;;23.63;;
21505;SDS011;10914;48.886;9.394;2022-07-11T04:21:45;27.37;;;25.77;;
21505;SDS011;10914;48.886;9.394;2022-07-11T04:24:10;23.23;;;21.93;;
21505;SDS011;10914;48.886;9.394;2022-07-11T04:26:36;23.00;;;21.80;;
21505;SDS011;10914;48.886;9.394;2022-07-11T04:29:01;23.20;;;21.80;;
21505;SDS011;10914;48.886;9.394;2022-07-11T04:31:27;22.90;;;21.65;;
21505;SDS011;10914;48.886;9.394;2022-07-11T04:33:52;25.60;;;24.02;;
21505;SDS011;10914;48.886;9.394;2022-07-11T04:36:17;23.25;;;21.98;;
21505;SDS011;10914;48.886;9.394;2022-07-11T04:38:43;23.52;;;22.23;;
21505;SDS011;10914;48.886;9.394;2022-07-11T04:41:11;26.40;;;25.00;;
21505;SDS011;10914;48.886;9.394;2022-07-11T04:43:36;28.00;;;26.47;;
21505;SDS011;10914;48.886;9.394;2022-07-11T04:46:02;24.90;;;23.50;;
21505;SDS011;10914;48.886;9.394;2022-07-11T04:48:29;22.98;;;21.73;;
21505;SDS011;10914;48.886;9.394;2022-07-11T04:50:55;23.92;;;22.63;;
21505;SDS011;10914;48.886;9.394;2022-07-11T04:53:20;25.15;;;23.85;;
21505;SDS011;10914;48.886;9.394;2022-07-11T04:55:45;25.87;;;24.27;;
21505;SDS011;10914;48.886;9.394;2022-07-11T04:58:11;24.77;;;23.38;;
21505;SDS011;10914;48.886;9.394;2022-07-11T05:00:36;25.13;;;23.83;;
21505;SDS011;10914;48.886;9.394;2022-07-11T05:03:01;23.13;;;21.92;;
21505;SDS011;10914;48.886;9.394;2022-07-11T05:05:27;22.02;;;20.80;;
21505;SDS011;10914;48.886;9.394;2022-07-11T05:07:52;22.50;;;21.30;;
21505;SDS011;10914;48.886;9.394;2022-07-11T05:10:18;22.48;;;21.27;;
21505;SDS011;10914;48.886;9.394;2022-07-11T05:12:43;23.30;;;22.05;;
21505;SDS011;10914;48.886;9.394;2022-07-11T05:15:09;23.10;;;21.90;;
21505;SDS011;10914;48.886;9.394;2022-07-11T05:17:34;22.65;;;21.45;;
21505;SDS011;10914;48.886;9.394;2022-07-11T05:20:00;23.95;;;22.65;;
21505;SDS011;10914;48.886;9.394;2022-07-11T05:22:25;23.27;;;22.02;;
21505;SDS011;10914;48.886;9.394;2022-07-11T05:24:50;24.30;;;23.00;;
21505;SDS011;10914;48.886;9.394;2022-07-11T05:27:16;22.57;;;21.37;;
21505;SDS011;10914;48.886;9.394;2022-07-11T05:29:41;23.20;;;21.80;;
21505;SDS011;10914;48.886;9.394;2022-07-11T05:32:06;23.00;;;21.55;;
21505;SDS011;10914;48.886;9.394;2022-07-11T05:34:31;22.60;;;21.40;;
21505;SDS011;10914;48.886;9.394;2022-07-11T05:36:57;24.10;;;22.70;;
21505;SDS011;10914;48.886;9.394;2022-07-11T05:39:22;23.87;;;22.57;;
21505;SDS011;10914;48.886;9.394;2022-07-11T05:41:47;24.92;;;23.63;;
21505;SDS011;10914;48.886;9.394;2022-07-11T05:44:15;24.67;;;23.17;;
21505;SDS011;10914;48.886;9.394;2022-07-11T05:46:42;24.65;;;23.25;;
21505;SDS011;10914;48.886;9.394;2022-07-11T05:49:07;24.85;;;23.45;;
21505;SDS011;10914;48.886;9.394;2022-07-11T05:51:32;24.63;;;23.33;;
21505;SDS011;10914;48.886;9.394;2022-07-11T05:53:58;24.55;;;23.15;;
21505;SDS011;10914;48.886;9.394;2022-07-11T05:56:23;25.10;;;23.50;;
21505;SDS011;10914;48.886;9.394;2022-07-11T05:58:48;25.07;;;23.67;;
21505;SDS011;10914;48.886;9.394;2022-07-11T06:01:13;25.25;;;23.65;;
21505;SDS011;10914;48.886;9.394;2022-07-11T06:03:38;25.43;;;24.03;;
21505;SDS011;10914;48.886;9.394;2022-07-11T06:06:04;24.77;;;23.37;;
21505;SDS011;10914;48.886;9.394;2022-07-11T06:08:31;24.58;;;23.20;;
21505;SDS011;10914;48.886;9.394;2022-07-11T06:11:05;24.77;;;23.38;;
21505;SDS011;10914;48.886;9.394;2022-07-11T06:13:30;24.70;;;23.40;;
21505;SDS011;10914;48.886;9.394;2022-07-11T06:15:56;23.92;;;22.67;;
21505;SDS011;10914;48.886;9.394;2022-07-11T06:18:21;23.73;;;22.53;;
21505;SDS011;10914;48.886;9.394;2022-07-11T06:20:46;24.75;;;23.35;;
21505;SDS011;10914;48.886;9.394;2022-07-11T06:23:11;24.53;;;23.13;;
21505;SDS011;10914;48.886;9.394;2022-07-11T06:25:37;24.70;;;23.38;;
21505;SDS011;10914;48.886;9.394;2022-07-11T06:28:03;24.52;;;23.13;;
21505;SDS011;10914;48.886;9.394;2022-07-11T06:30:28;23.23;;;22.00;;
21505;SDS011;10914;48.886;9.394;2022-07-11T06:32:53;23.80;;;22.48;;
21505;SDS011;10914;48.886;9.394;2022-07-11T06:35:18;26.27;;;24.87;;
21505;SDS011;10914;48.886;9.394;2022-07-11T06:37:44;24.73;;;23.43;;
21505;SDS011;10914;48.886;9.394;2022-07-11T06:40:09;25.47;;;24.07;;
21505;SDS011;10914;48.886;9.394;2022-07-11T06:42:36;23.58;;;22.17;;
21505;SDS011;10914;48.886;9.394;2022-07-11T06:45:02;25.02;;;23.80;;
21505;SDS011;10914;48.886;9.394;2022-07-11T06:47:27;25.52;;;24.15;;
21505;SDS011;10914;48.886;9.394;2022-07-11T06:49:52;22.47;;;21.17;;
21505;SDS011;10914;48.886;9.394;2022-07-11T06:52:17;22.53;;;21.30;;
21505;SDS011;10914;48.886;9.394;2022-07-11T06:54:42;22.97;;;21.50;;
21505;SDS011;10914;48.886;9.394;2022-07-11T06:57:08;22.80;;;21.40;;
21505;SDS011;10914;48.886;9.394;2022-07-11T06:59:33;22.60;;;21.20;;
21505;SDS011;10914;48.886;9.394;2022-07-11T07:01:58;22.30;;;21.05;;
21505;SDS011;10914;48.886;9.394;2022-07-11T07:04:24;21.88;;;20.77;;
21505;SDS011;10914;48.886;9.394;2022-07-11T07:06:49;22.80;;;21.60;;
21505;SDS011;10914;48.886;9.394;2022-07-11T07:09:14;22.20;;;20.90;;
21505;SDS011;10914;48.886;9.394;2022-07-11T07:11:39;20.90;;;19.80;;
21505;SDS011;10914;48.886;9.394;2022-07-11T07:14:05;22.23;;;20.92;;
21505;SDS011;10914;48.886;9.394;2022-07-11T07:16:30;21.58;;;20.48;;
21505;SDS011;10914;48.886;9.394;2022-07-11T07:18:55;23.23;;;21.90;;
21505;SDS011;10914;48.886;9.394;2022-07-11T07:21:20;21.55;;;20.42;;
21505;SDS011;10914;48.886;9.394;2022-07-11T07:23:46;22.30;;;21.20;;
21505;SDS011;10914;48.886;9.394;2022-07-11T07:26:11;23.40;;;22.10;;
21505;SDS011;10914;48.886;9.394;2022-07-11T07:28:36;20.92;;;19.90;;
21505;SDS011;10914;48.886;9.394;2022-07-11T07:31:03;21.88;;;20.58;;
21505;SDS011;10914;48.886;9.394;2022-07-11T07:33:29;20.45;;;19.40;;
21505;SDS011;10914;48.886;9.394;2022-07-11T07:35:54;20.40;;;19.40;;
21505;SDS011;10914;48.886;9.394;2022-07-11T07:38:19;20.67;;;19.48;;
21505;SDS011;10914;48.886;9.394;2022-07-11T07:40:44;20.38;;;19.27;;
21505;SDS011;10914;48.886;9.394;2022-07-11T07:43:10;19.52;;;18.45;;
21505;SDS011;10914;48.886;9.394;2022-07-11T07:45:35;20.43;;;19.37;;
21505;SDS011;10914;48.886;9.394;2022-07-11T07:48:00;20.27;;;19.10;;
21505;SDS011;10914;48.886;9.394;2022-07-11T07:50:25;21.87;;;20.77;;
21505;SDS011;10914;48.886;9.394;2022-07-11T07:52:50;22.30;;;21.20;;
21505;SDS011;10914;48.886;9.394;2022-07-11T07:55:16;22.10;;;21.00;;
21505;SDS011;10914;48.886;9.394;2022-07-11T07:57:41;21.63;;;20.43;;
21505;SDS011;10914;48.886;9.394;2022-07-11T08:00:06;23.53;;;22.30;;
21505;SDS011;10914;48.886;9.394;2022-07-11T08:02:50;22.60;;;21.30;;
21505;SDS011;10914;48.886;9.394;2022-07-11T08:05:16;22.33;;;21.23;;
21505;SDS011;10914;48.886;9.394;2022-07-11T08:07:41;23.33;;;22.15;;
21505;SDS011;10914;48.886;9.394;2022-07-11T08:10:06;20.07;;;18.97;;
21505;SDS011;10914;48.886;9.394;2022-07-11T08:12:32;20.45;;;19.45;;
21505;SDS011;10914;48.886;9.394;2022-07-11T08:14:57;23.67;;;22.48;;
21505;SDS011;10914;48.886;9.394;2022-07-11T08:17:22;21.40;;;20.33;;
21505;SDS011;10914;48.886;9.394;2022-07-11T08:19:47;21.13;;;20.13;;
21505;SDS011;10914;48.886;9.394;2022-07-11T08:22:12;21.57;;;20.57;;
21505;SDS011;10914;48.886;9.394;2022-07-11T08:24:38;21.53;;;20.43;;
21505;SDS011;10914;48.886;9.394;2022-07-11T08:27:03;22.37;;;21.33;;
21505;SDS011;10914;48.886;9.394;2022-07-11T08:29:28;22.95;;;21.88;;
21505;SDS011;10914;48.886;9.394;2022-07-11T08:31:53;25.58;;;24.35;;
21505;SDS011;10914;48.886;9.394;2022-07-11T08:34:18;21.43;;;20.33;;
21505;SDS011;10914;48.886;9.394;2022-07-11T08:36:44;19.50;;;18.60;;
21505;SDS011;10914;48.886;9.394;2022-07-11T08:39:09;18.90;;;18.00;;
21505;SDS011;10914;48.886;9.394;2022-07-11T08:41:34;18.53;;;17.63;;
21505;SDS011;10914;48.886;9.394;2022-07-11T08:44:04;19.17;;;18.27;;
21505;SDS011;10914;48.886;9.394;2022-07-11T08:46:31;21.55;;;20.55;;
21505;SDS011;10914;48.886;9.394;2022-07-11T08:48:57;20.80;;;19.85;;
21505;SDS011;10914;48.886;9.394;2022-07-11T08:51:24;20.38;;;19.38;;
21505;SDS011;10914;48.886;9.394;2022-07-11T08:53:50;21.13;;;20.02;;
21505;SDS011;10914;48.886;9.394;2022-07-11T08:56:15;20.93;;;19.93;;
21505;SDS011;10914;48.886;9.394;2022-07-11T08:58:46;21.88;;;20.77;;
21505;SDS011;10914;48.886;9.394;2022-07-11T09:01:13;22.10;;;21.00;;
21505;SDS011;10914;48.886;9.394;2022-07-11T09:03:40;22.23;;;21.17;;
21505;SDS011;10914;48.886;9.394;2022-07-11T09:06:05;22.08;;;20.95;;
21505;SDS011;10914;48.886;9.394;2022-07-11T09:08:30;24.30;;;23.20;;
21505;SDS011;10914;48.886;9.394;2022-07-11T09:10:56;22.05;;;20.85;;
21505;SDS011;10914;48.886;9.394;2022-07-11T09:13:21;20.63;;;19.63;;
21505;SDS011;10914;48.886;9.394;2022-07-11T09:15:52;21.60;;;20.50;;
21505;SDS011;10914;48.886;9.394;2022-07-11T09:20:53;22.80;;;21.70;;
21505;SDS011;10914;48.886;9.394;2022-07-11T09:23:39;21.08;;;20.08;;
21505;SDS011;10914;48.886;9.394;2022-07-11T09:26:24;21.23;;;20.02;;
21505;SDS011;10914;48.886;9.394;2022-07-11T09:28:59;19.37;;;18.37;;
21505;SDS011;10914;48.886;9.394;2022-07-11T09:31:26;21.25;;;20.25;;
21505;SDS011;10914;48.886;9.394;2022-07-11T09:33:58;21.95;;;20.85;;
21505;SDS011;10914;48.886;9.394;2022-07-11T09:36:34;22.08;;;20.98;;
21505;SDS011;10914;48.886;9.394;2022-07-11T09:39:00;20.73;;;19.63;;
21505;SDS011;10914;48.886;9.394;2022-07-11T09:41:26;22.55;;;21.45;;
21505;SDS011;10914;48.886;9.394;2022-07-11T09:43:51;21.10;;;20.00;;
21505;SDS011;10914;48.886;9.394;2022-07-11T09:46:23;20.23;;;19.23;;
21505;SDS011;10914;48.886;9.394;2022-07-11T09:48:48;19.50;;;18.50;;
21505;SDS011;10914;48.886;9.394;2022-07-11T09:51:19;19.40;;;18.30;;
21505;SDS011;10914;48.886;9.394;2022-07-11T09:53:57;21.77;;;20.58;;
21505;SDS011;10914;48.886;9.394;2022-07-11T09:56:26;20.10;;;19.10;;
21505;SDS011;10914;48.886;9.394;2022-07-11T09:58:58;22.67;;;21.40;;
21505;SDS011;10914;48.886;9.394;2022-07-11T10:01:23;20.15;;;19.13;;
21505;SDS011;10914;48.886;9.394;2022-07-11T10:03:48;19.45;;;18.45;;
21505;SDS011;10914;48.886;9.394;2022-07-11T10:06:14;19.67;;;18.70;;
21505;SDS011;10914;48.886;9.394;2022-07-11T10:08:39;23.58;;;22.38;;
21505;SDS011;10914;48.886;9.394;2022-07-11T10:11:04;21.85;;;20.70;;
21505;SDS011;10914;48.886;9.394;2022-07-11T10:13:29;19.42;;;18.42;;
21505;SDS011;10914;48.886;9.394;2022-07-11T10:15:55;19.35;;;18.42;;
21505;SDS011;10914;48.886;9.394;2022-07-11T10:18:28;19.23;;;18.13;;
21505;SDS011;10914;48.886;9.394;2022-07-11T10:20:58;18.15;;;17.13;;
21505;SDS011;10914;48.886;9.394;2022-07-11T10:23:36;18.23;;;16.88;;
21505;SDS011;10914;48.886;9.394;2022-07-11T10:26:08;18.00;;;16.98;;
21505;SDS011;10914;48.886;9.394;2022-07-11T10:28:39;17.88;;;16.88;;
21505;SDS011;10914;48.886;9.394;2022-07-11T10:31:20;17.83;;;16.92;;
21505;SDS011;10914;48.886;9.394;2022-07-11T10:34:26;18.73;;;17.88;;
21505;SDS011;10914;48.886;9.394;2022-07-11T10:36:44;19.00;;;17.45;;
21505;SDS011;10914;48.886;9.394;2022-07-11T10:39:19;19.23;;;18.30;;
21505;SDS011;10914;48.886;9.394;2022-07-11T10:41:54;17.35;;;16.45;;
21505;SDS011;10914;48.886;9.394;2022-07-11T10:44:20;18.13;;;17.23;;
21505;SDS011;10914;48.886;9.394;2022-07-11T10:46:45;18.08;;;17.13;;
21505;SDS011;10914;48.886;9.394;2022-07-11T10:57:04;18.17;;;17.25;;
21505;SDS011;10914;48.886;9.394;2022-07-11T10:59:32;17.67;;;16.77;;
21505;SDS011;10914;48.886;9.394;2022-07-11T11:07:10;17.55;;;16.67;;
21505;SDS011;10914;48.886;9.394;2022-07-11T11:09:51;18.95;;;18.05;;
21505;SDS011;10914;48.886;9.394;2022-07-11T11:12:16;18.47;;;17.37;;
21505;SDS011;10914;48.886;9.394;2022-07-11T11:14:42;18.40;;;17.20;;
21505;SDS011;10914;48.886;9.394;2022-07-11T11:19:51;18.38;;;17.50;;
21505;SDS011;10914;48.886;9.394;2022-07-11T11:22:18;17.52;;;16.63;;
21505;SDS011;10914;48.886;9.394;2022-07-11T11:24:43;17.85;;;16.95;;
21505;SDS011;10914;48.886;9.394;2022-07-11T11:27:16;17.90;;;16.88;;
21505;SDS011;10914;48.886;9.394;2022-07-11T11:29:42;17.65;;;16.75;;
21505;SDS011;10914;48.886;9.394;2022-07-11T11:32:08;19.42;;;18.30;;
21505;SDS011;10914;48.886;9.394;2022-07-11T11:34:34;19.00;;;18.00;;
21505;SDS011;10914;48.886;9.394;2022-07-11T11:36:59;18.50;;;17.60;;
21505;SDS011;10914;48.886;9.394;2022-07-11T11:39:26;19.45;;;18.45;;
21505;SDS011;10914;48.886;9.394;2022-07-11T11:41:52;17.80;;;16.83;;
21505;SDS011;10914;48.886;9.394;2022-07-11T11:44:17;19.73;;;18.73;;
21505;SDS011;10914;48.886;9.394;2022-07-11T11:46:42;17.10;;;16.30;;
21505;SDS011;10914;48.886;9.394;2022-07-11T11:49:07;18.33;;;17.30;;
21505;SDS011;10914;48.886;9.394;2022-07-11T11:51:32;18.48;;;17.23;;
21505;SDS011;10914;48.886;9.394;2022-07-11T11:54:01;17.63;;;16.73;;
21505;SDS011;10914;48.886;9.394;2022-07-11T11:56:31;20.40;;;19.30;;
21505;SDS011;10914;48.886;9.394;2022-07-11T11:59:06;20.30;;;19.40;;
21505;SDS011;10914;48.886;9.394;2022-07-11T12:01:33;19.98;;;18.88;;
21505;SDS011;10914;48.886;9.394;2022-07-11T12:03:59;18.75;;;17.75;;
21505;SDS011;10914;48.886;9.394;2022-07-11T12:08:51;18.90;;;17.88;;
21505;SDS011;10914;48.886;9.394;2022-07-11T12:11:17;17.27;;;16.45;;
21505;SDS011;10914;48.886;9.394;2022-07-11T12:13:42;19.05;;;18.05;;
21505;SDS011;10914;48.886;9.394;2022-07-11T12:16:11;19.50;;;18.55;;
21505;SDS011;10914;48.886;9.394;2022-07-11T12:18:55;18.35;;;17.52;;
21505;SDS011;10914;48.886;9.394;2022-07-11T12:21:20;19.43;;;18.40;;
21505;SDS011;10914;48.886;9.394;2022-07-11T12:23:46;17.80;;;17.00;;
21505;SDS011;10914;48.886;9.394;2022-07-11T12:26:11;17.97;;;17.07;;
21505;SDS011;10914;48.886;9.394;2022-07-11T12:29:01;17.02;;;16.23;;
21505;SDS011;10914;48.886;9.394;2022-07-11T12:31:22;17.33;;;16.42;;
21505;SDS011;10914;48.886;9.394;2022-07-11T12:33:50;18.03;;;17.03;;
21505;SDS011;10914;48.886;9.394;2022-07-11T12:36:16;17.83;;;16.92;;
21505;SDS011;10914;48.886;9.394;2022-07-11T12:38:48;17.40;;;16.60;;
21505;SDS011;10914;48.886;9.394;2022-07-11T12:41:16;19.27;;;18.17;;
21505;SDS011;10914;48.886;9.394;2022-07-11T12:43:46;18.97;;;17.97;;
21505;SDS011;10914;48.886;9.394;2022-07-11T12:46:30;17.80;;;16.90;;
21505;SDS011;10914;48.886;9.394;2022-07-11T12:48:56;17.83;;;17.00;;
21505;SDS011;10914;48.886;9.394;2022-07-11T12:51:37;19.37;;;18.30;;
21505;SDS011;10914;48.886;9.394;2022-07-11T12:54:06;18.92;;;17.92;;
21505;SDS011;10914;48.886;9.394;2022-07-11T12:56:33;18.92;;;17.92;;
21505;SDS011;10914;48.886;9.394;2022-07-11T12:58:58;18.73;;;17.73;;
21505;SDS011;10914;48.886;9.394;2022-07-11T13:01:24;19.85;;;18.75;;
21505;SDS011;10914;48.886;9.394;2022-07-11T13:03:49;18.00;;;17.10;;
21505;SDS011;10914;48.886;9.394;2022-07-11T13:06:15;18.63;;;17.37;;
21505;SDS011;10914;48.886;9.394;2022-07-11T13:08:40;18.02;;;17.02;;
21505;SDS011;10914;48.886;9.394;2022-07-11T13:11:15;18.30;;;17.40;;
21505;SDS011;10914;48.886;9.394;2022-07-11T13:13:40;18.75;;;17.75;;
21505;SDS011;10914;48.886;9.394;2022-07-11T13:16:06;19.27;;;18.27;;
21505;SDS011;10914;48.886;9.394;2022-07-11T13:18:32;18.20;;;17.30;;
21505;SDS011;10914;48.886;9.394;2022-07-11T13:20:58;18.88;;;17.67;;
21505;SDS011;10914;48.886;9.394;2022-07-11T13:23:23;19.20;;;18.00;;
21505;SDS011;10914;48.886;9.394;2022-07-11T13:25:48;18.87;;;17.77;;
21505;SDS011;10914;48.886;9.394;2022-07-11T13:28:13;18.50;;;17.60;;
21505;SDS011;10914;48.886;9.394;2022-07-11T13:30:39;18.67;;;17.67;;
21505;SDS011;10914;48.886;9.394;2022-07-11T13:33:05;18.40;;;17.25;;
21505;SDS011;10914;48.886;9.394;2022-07-11T13:35:30;19.00;;;17.90;;
21505;SDS011;10914;48.886;9.394;2022-07-11T13:37:55;19.10;;;18.00;;
21505;SDS011;10914;48.886;9.394;2022-07-11T13:40:21;19.23;;;18.00;;
21505;SDS011;10914;48.886;9.394;2022-07-11T13:42:47;19.30;;;18.20;;
21505;SDS011;10914;48.886;9.394;2022-07-11T13:45:14;19.33;;;18.23;;
21505;SDS011;10914;48.886;9.394;2022-07-11T13:47:40;19.15;;;17.95;;
21505;SDS011;10914;48.886;9.394;2022-07-11T13:50:05;18.77;;;17.67;;
21505;SDS011;10914;48.886;9.394;2022-07-11T13:52:31;18.48;;;17.48;;
21505;SDS011;10914;48.886;9.394;2022-07-11T13:54:56;19.02;;;18.00;;
21505;SDS011;10914;48.886;9.394;2022-07-11T13:57:21;18.80;;;17.70;;
21505;SDS011;10914;48.886;9.394;2022-07-11T13:59:47;18.73;;;17.53;;
21505;SDS011;10914;48.886;9.394;2022-07-11T14:02:13;19.35;;;18.10;;
21505;SDS011;10914;48.886;9.394;2022-07-11T14:04:38;18.43;;;17.40;;
21505;SDS011;10914;48.886;9.394;2022-07-11T14:07:03;20.30;;;18.97;;
21505;SDS011;10914;48.886;9.394;2022-07-11T14:09:28;20.52;;;19.48;;
21505;SDS011;10914;48.886;9.394;2022-07-11T14:11:54;18.67;;;17.77;;
21505;SDS011;10914;48.886;9.394;2022-07-11T14:14:19;19.00;;;18.10;;
21505;SDS011;10914;48.886;9.394;2022-07-11T14:16:45;19.88;;;18.88;;
21505;SDS011;10914;48.886;9.394;2022-07-11T14:19:10;19.65;;;18.55;;
21505;SDS011;10914;48.886;9.394;2022-07-11T14:21:36;19.85;;;18.52;;
21505;SDS011;10914;48.886;9.394;2022-07-11T14:24:01;18.10;;;17.20;;
21505;SDS011;10914;48.886;9.394;2022-07-11T14:26:27;19.13;;;18.02;;
21505;SDS011;10914;48.886;9.394;2022-07-11T14:28:52;19.63;;;18.65;;
21505;SDS011;10914;48.886;9.394;2022-07-11T14:31:17;16.85;;;16.05;;
21505;SDS011;10914;48.886;9.394;2022-07-11T14:33:43;16.95;;;16.15;;
21505;SDS011;10914;48.886;9.394;2022-07-11T14:36:08;17.02;;;16.23;;
21505;SDS011;10914;48.886;9.394;2022-07-11T14:38:33;16.73;;;15.83;;
21505;SDS011;10914;48.886;9.394;2022-07-11T14:40:59;17.10;;;16.10;;